Time;durP1;ratioP1;P1;durP2;ratioP2;P2;SDS_P1;SDS_P2;PMS_P1;PMS_P2;Temp;Humidity;BMP_temperature;BMP_pressure;BME280_temperature;BME280_humidity;BME280_pressure;Samples;Min_cycle;Max_cycle;Signal;HPM_P1;HPM_P2
2023/09/14 00:01:34;;;;;;;10.57;3.35;;;;;;;25.05;100.00;101460.81;143718;662;47002;-68
2023/09/14 00:04:01;;;;;;;7.45;3.40;;;;;;;25.02;100.00;101462.16;143718;595;48004;-69
2023/09/14 00:06:28;;;;;;;7.18;2.92;;;;;;;24.99;100.00;101459.97;143722;573;46002;-69
2023/09/14 00:08:55;;;;;;;15.73;3.40;;;;;;;24.97;100.00;101456.69;143723;573;48002;-68
2023/09/14 00:11:22;;;;;;;5.68;3.10;;;;;;;24.90;100.00;101451.47;143725;585;47008;-68
2023/09/14 00:13:50;;;;;;;7.15;3.95;;;;;;;24.90;100.00;101456.16;143724;577;48014;-69
2023/09/14 00:16:16;;;;;;;4.78;3.08;;;;;;;24.91;100.00;101455.88;143727;611;46004;-69
2023/09/14 00:18:43;;;;;;;5.93;2.97;;;;;;;24.89;100.00;101449.00;143721;669;49012;-68
2023/09/14 00:21:10;;;;;;;9.02;3.35;;;;;;;24.91;100.00;101447.63;143722;578;48002;-69
2023/09/14 00:23:38;;;;;;;8.38;3.37;;;;;;;24.88;100.00;101452.88;143727;582;47002;-68
2023/09/14 00:26:04;;;;;;;7.80;3.75;;;;;;;24.83;100.00;101450.94;143724;649;46921;-69
2023/09/14 00:28:31;;;;;;;8.57;3.28;;;;;;;24.86;100.00;101444.91;143724;606;47004;-69
2023/09/14 00:30:58;;;;;;;6.00;3.10;;;;;;;24.90;100.00;101442.41;143723;597;48008;-68
2023/09/14 00:33:25;;;;;;;7.50;3.17;;;;;;;24.89;100.00;101447.06;143724;607;48002;-68
2023/09/14 00:35:52;;;;;;;7.03;3.10;;;;;;;24.88;100.00;101439.12;143719;582;48002;-70
2023/09/14 00:38:19;;;;;;;5.95;2.70;;;;;;;24.89;100.00;101449.00;143724;602;48006;-68
2023/09/14 00:40:48;;;;;;;10.13;3.45;;;;;;;24.87;100.00;101442.97;143723;574;48008;-70
2023/09/14 00:43:15;;;;;;;6.78;3.25;;;;;;;24.81;100.00;101440.22;143726;609;47002;-71
2023/09/14 00:45:42;;;;;;;5.97;3.08;;;;;;;24.82;100.00;101444.63;143722;599;46004;-69
2023/09/14 00:48:09;;;;;;;7.53;3.25;;;;;;;24.79;100.00;101431.47;143724;572;48002;-69
2023/09/14 00:50:36;;;;;;;9.02;3.28;;;;;;;24.74;100.00;101431.47;143723;583;48008;-71
2023/09/14 00:53:14;;;;;;;7.78;3.80;;;;;;;24.73;100.00;101418.81;143726;603;48002;-69
2023/09/14 00:55:43;;;;;;;4.40;2.80;;;;;;;24.74;100.00;101414.97;143724;604;46921;-68
2023/09/14 00:58:15;;;;;;;8.13;3.40;;;;;;;24.75;100.00;101413.88;143721;567;48004;-69
2023/09/14 01:00:46;;;;;;;8.15;2.90;;;;;;;24.76;100.00;101410.03;143723;586;48008;-70
2023/09/14 03:00:50;;;;;;;11.12;5.20;;;;;;;24.18;100.00;101413.88;143725;590;47002;-69
2023/09/14 03:03:17;;;;;;;18.60;4.70;;;;;;;24.16;100.00;101415.28;143722;633;47002;-70
2023/09/14 03:05:48;;;;;;;10.65;3.97;;;;;;;24.12;100.00;101406.72;143719;581;46004;-69
2023/09/14 03:08:14;;;;;;;16.25;4.60;;;;;;;24.14;100.00;101412.78;143720;620;47002;-70
2023/09/14 03:10:42;;;;;;;13.02;4.57;;;;;;;24.15;100.00;101408.12;143720;585;49002;-69
2023/09/14 03:13:09;;;;;;;9.95;3.60;;;;;;;24.17;100.00;101416.91;143724;601;48003;-69
2023/09/14 03:15:36;;;;;;;13.50;3.78;;;;;;;24.10;100.00;101405.38;143710;643;50002;-70
2023/09/14 03:18:03;;;;;;;9.40;3.80;;;;;;;24.14;100.00;101411.97;143720;576;48002;-69
2023/09/14 03:20:30;;;;;;;10.15;2.85;;;;;;;24.16;100.00;101413.34;143717;574;48009;-70
2023/09/14 03:22:59;;;;;;;11.88;3.95;;;;;;;24.14;100.00;101414.72;143722;618;48002;-69
2023/09/14 03:25:26;;;;;;;15.32;4.18;;;;;;;24.12;100.00;101419.66;143722;586;47000;-70
2023/09/14 03:27:52;;;;;;;10.73;4.03;;;;;;;24.08;100.00;101413.88;143724;591;47007;-70
2023/09/14 03:30:19;;;;;;;11.63;4.53;;;;;;;24.01;100.00;101419.63;143722;578;48008;-71
2023/09/14 03:32:47;;;;;;;11.77;4.45;;;;;;;23.99;100.00;101418.25;143722;582;47002;-69
2023/09/14 03:35:14;;;;;;;15.80;4.60;;;;;;;23.97;100.00;101423.19;143720;573;47002;-70
2023/09/14 03:37:41;;;;;;;10.25;3.95;;;;;;;23.87;100.00;101426.72;143723;594;48002;-69
2023/09/14 03:40:08;;;;;;;7.65;3.87;;;;;;;23.85;100.00;101421.50;143715;566;49008;-70
2023/09/14 03:42:35;;;;;;;10.10;4.37;;;;;;;23.86;100.00;101422.31;143722;614;47015;-69
2023/09/14 03:45:03;;;;;;;12.07;4.22;;;;;;;23.86;100.00;101409.44;143718;592;46925;-70
2023/09/14 03:47:29;;;;;;;18.20;4.53;;;;;;;23.87;100.00;101421.22;143720;589;48004;-68
2023/09/14 03:49:56;;;;;;;13.38;4.20;;;;;;;23.84;100.00;101428.09;143721;595;47011;-70
2023/09/14 03:52:24;;;;;;;12.35;4.18;;;;;;;23.82;100.00;101429.47;143722;573;47016;-69
2023/09/14 03:54:51;;;;;;;15.80;4.05;;;;;;;23.84;100.00;101427.25;143714;633;50004;-68
2023/09/14 03:57:18;;;;;;;16.08;4.37;;;;;;;23.85;100.00;101427.00;143723;612;47006;-70
2023/09/14 03:59:46;;;;;;;14.10;4.25;;;;;;;23.80;100.00;101421.47;143721;598;48013;-69
2023/09/14 04:02:21;;;;;;;17.45;4.22;;;;;;;23.84;100.00;101421.75;143723;588;47004;-69
2023/09/14 04:04:47;;;;;;;17.70;4.40;;;;;;;23.81;100.00;101417.66;143713;559;48002;-69
2023/09/14 04:07:15;;;;;;;17.60;4.70;;;;;;;23.75;100.00;101426.94;143717;583;47004;-69
2023/09/14 04:09:42;;;;;;;27.83;5.85;;;;;;;23.74;100.00;101439.00;143711;610;49010;-68
2023/09/14 04:12:09;;;;;;;18.27;4.72;;;;;;;23.74;100.00;101445.34;143718;582;47004;-70
2023/09/14 04:14:36;;;;;;;16.30;4.75;;;;;;;23.73;100.00;101448.38;143714;567;46013;-70
2023/09/14 04:17:03;;;;;;;9.13;3.95;;;;;;;23.72;100.00;101449.47;143715;602;48004;-70
2023/09/14 04:19:30;;;;;;;8.23;4.20;;;;;;;23.77;100.00;101454.94;143716;588;48011;-71
2023/09/14 04:21:58;;;;;;;14.65;4.40;;;;;;;23.79;100.00;101455.50;143716;579;48004;-69
2023/09/14 04:24:25;;;;;;;11.93;3.70;;;;;;;23.85;100.00;101450.84;143711;617;46924;-70
2023/09/14 04:26:51;;;;;;;20.90;4.35;;;;;;;23.86;100.00;101460.72;143716;610;47009;-70
2023/09/14 04:29:19;;;;;;;7.93;4.07;;;;;;;23.82;100.00;101467.87;143717;596;47019;-68
2023/09/14 04:31:46;;;;;;;16.25;4.37;;;;;;;23.83;100.00;101469.50;143714;596;48004;-69
2023/09/14 04:34:13;;;;;;;9.82;4.37;;;;;;;23.82;100.00;101465.94;143714;573;46009;-69
2023/09/14 04:36:40;;;;;;;15.30;4.65;;;;;;;23.86;100.00;101468.94;143716;577;47004;-70
2023/09/14 04:39:06;;;;;;;15.02;4.07;;;;;;;23.88;100.00;101464.00;143713;592;48010;-70
2023/09/14 04:41:33;;;;;;;15.55;4.00;;;;;;;23.86;100.00;101458.81;143714;627;47004;-69
2023/09/14 04:44:00;;;;;;;13.75;5.03;;;;;;;23.90;100.00;101456.34;143711;594;46008;-69
2023/09/14 04:46:27;;;;;;;15.95;4.43;;;;;;;23.95;100.00;101455.53;143714;609;46012;-71
2023/09/14 04:48:54;;;;;;;13.95;4.53;;;;;;;23.98;100.00;101457.75;143714;612;50923;-70
2023/09/14 04:51:23;;;;;;;9.70;4.20;;;;;;;23.92;100.00;101457.72;143714;573;47004;-71
2023/09/14 04:53:49;;;;;;;17.65;5.60;;;;;;;23.96;100.00;101460.75;143715;591;46008;-68
2023/09/14 04:56:16;;;;;;;10.88;3.83;;;;;;;24.02;100.00;101454.19;143715;629;47006;-70
2023/09/14 04:58:43;;;;;;;18.00;4.07;;;;;;;24.13;100.00;101465.22;143717;599;47013;-71
2023/09/14 05:01:11;;;;;;;19.98;4.30;;;;;;;24.17;100.00;101463.56;143719;604;47004;-69
2023/09/14 05:03:39;;;;;;;18.58;4.00;;;;;;;24.14;100.00;101472.34;143707;568;49008;-71
2023/09/14 05:06:06;;;;;;;23.50;4.57;;;;;;;24.14;100.00;101472.34;143714;585;48004;-69
2023/09/14 05:08:33;;;;;;;11.35;4.25;;;;;;;24.20;100.00;101477.56;143715;635;48028;-70
2023/09/14 05:11:01;;;;;;;15.20;3.72;;;;;;;24.25;100.00;101478.69;143714;580;48004;-70
2023/09/14 05:13:28;;;;;;;12.27;3.70;;;;;;;24.32;100.00;101484.72;143718;577;46012;-70
2023/09/14 05:15:55;;;;;;;13.95;4.05;;;;;;;24.36;100.00;101483.06;143716;583;47006;-69
2023/09/14 05:18:22;;;;;;;18.02;4.28;;;;;;;24.37;100.00;101476.47;143711;574;48023;-69
2023/09/14 05:20:49;;;;;;;16.52;4.57;;;;;;;24.40;100.00;101475.94;143714;580;47005;-69
2023/09/14 05:23:16;;;;;;;19.77;4.35;;;;;;;24.44;100.00;101481.69;143712;636;46008;-70
2023/09/14 05:25:44;;;;;;;28.40;5.30;;;;;;;24.46;100.00;101479.50;143714;582;48004;-71
2023/09/14 05:28:11;;;;;;;14.73;5.60;;;;;;;24.53;100.00;101474.56;143713;567;48013;-70
2023/09/14 05:30:38;;;;;;;13.75;4.45;;;;;;;24.57;100.00;101469.34;143714;580;47004;-69
2023/09/14 05:33:05;;;;;;;9.75;4.15;;;;;;;24.68;100.00;101477.31;143713;573;46924;-70
2023/09/14 05:35:33;;;;;;;13.65;3.95;;;;;;;24.76;100.00;101475.97;143716;622;47006;-69
2023/09/14 05:37:59;;;;;;;7.90;4.37;;;;;;;24.82;100.00;101480.34;143700;588;49004;-70
2023/09/14 05:40:26;;;;;;;8.27;3.45;;;;;;;24.91;100.00;101493.53;143718;597;48004;-71
2023/09/14 05:42:54;;;;;;;18.08;4.50;;;;;;;25.01;100.00;101485.25;143713;603;46008;-70
2023/09/14 05:45:21;;;;;;;13.50;4.18;;;;;;;25.10;100.00;101478.09;143716;594;47006;-69
2023/09/14 05:47:48;;;;;;;16.42;3.92;;;;;;;25.21;100.00;101478.91;143710;577;47011;-71
2023/09/14 05:50:15;;;;;;;12.00;4.37;;;;;;;25.30;100.00;101481.91;143715;567;47004;-69
2023/09/14 05:52:43;;;;;;;18.85;3.28;;;;;;;25.39;100.00;101477.44;143713;595;46008;-71
2023/09/14 05:55:10;;;;;;;8.10;3.80;;;;;;;25.48;100.00;101474.16;143714;598;48004;-72
2023/09/14 05:57:37;;;;;;;10.88;3.62;;;;;;;25.56;100.00;101470.81;143715;577;47011;-68
2023/09/14 06:00:12;;;;;;;7.65;3.75;;;;;;;25.60;100.00;101471.06;143716;597;47015;-71
2023/09/14 06:02:42;;;;;;;9.93;3.12;;;;;;;25.55;100.00;101475.50;143713;590;46925;-71
2023/09/14 06:05:09;;;;;;;8.52;3.20;;;;;;;25.57;100.00;101478.81;143718;658;47023;-70
2023/09/14 06:07:36;;;;;;;8.55;3.30;;;;;;;25.72;100.00;101479.84;143718;600;47012;-71
2023/09/14 06:10:03;;;;;;;10.40;3.03;;;;;;;25.82;100.00;101478.97;143715;582;47010;-72
2023/09/14 06:12:31;;;;;;;12.60;3.83;;;;;;;25.89;100.00;101479.44;143711;580;47004;-70
2023/09/14 06:14:58;;;;;;;15.07;4.45;;;;;;;25.92;100.00;101478.06;143716;679;48004;-70
2023/09/14 06:17:25;;;;;;;16.58;4.32;;;;;;;25.97;100.00;101478.03;143713;651;49010;-69
2023/09/14 06:19:52;;;;;;;13.98;5.32;;;;;;;26.10;100.00;101479.31;143714;710;48004;-69
2023/09/14 06:22:20;;;;;;;17.98;4.68;;;;;;;26.19;100.00;101477.66;143716;707;46006;-70
2023/09/14 06:24:47;;;;;;;21.80;5.62;;;;;;;26.30;100.00;101475.62;143715;624;47006;-70
2023/09/14 06:27:15;;;;;;;9.02;4.05;;;;;;;26.41;100.00;101473.63;143716;606;47011;-69
2023/09/14 06:29:42;;;;;;;9.50;4.07;;;;;;;26.49;100.00;101476.56;143719;699;47004;-68
2023/09/14 06:32:09;;;;;;;13.57;4.15;;;;;;;26.58;100.00;101471.28;143714;709;46008;-68
2023/09/14 06:34:36;;;;;;;12.63;4.82;;;;;;;26.63;100.00;101471.22;143716;715;47004;-67
2023/09/14 06:37:03;;;;;;;16.17;5.15;;;;;;;26.68;100.00;101480.56;143716;621;48010;-69
2023/09/14 06:39:31;;;;;;;15.88;4.95;;;;;;;26.70;100.00;101476.41;143716;648;47004;-69
2023/09/14 06:41:57;;;;;;;16.30;5.65;;;;;;;26.78;100.00;101486.81;143714;567;46008;-69
2023/09/14 06:44:25;;;;;;;13.75;5.47;;;;;;;26.89;100.00;101479.31;143716;655;47004;-70
2023/09/14 06:46:52;;;;;;;17.75;4.70;;;;;;;26.94;100.00;101490.25;143720;598;46019;-70
2023/09/14 06:49:19;;;;;;;15.63;5.25;;;;;;;27.03;100.00;101473.91;143713;619;46010;-68
2023/09/14 06:51:47;;;;;;;11.23;4.53;;;;;;;27.06;100.00;101480.78;143716;665;46012;-70
2023/09/14 06:54:14;;;;;;;16.30;4.45;;;;;;;27.18;100.00;101485.91;143712;573;49008;-70
2023/09/14 06:56:41;;;;;;;18.60;4.78;;;;;;;27.17;100.00;101490.56;143718;648;47012;-69
2023/09/14 06:59:08;;;;;;;7.37;4.15;;;;;;;27.13;100.00;101491.47;143716;655;47004;-69
2023/09/14 07:01:36;;;;;;;19.45;4.12;;;;;;;27.20;100.00;101483.63;143718;731;47004;-70
2023/09/14 07:04:03;;;;;;;17.15;4.18;;;;;;;27.31;100.00;101487.09;143716;652;47004;-71
2023/09/14 07:06:30;;;;;;;8.02;4.10;;;;;;;27.20;100.00;101491.91;143719;726;47010;-69
2023/09/14 07:08:57;;;;;;;14.30;4.60;;;;;;;27.23;100.00;101489.41;143714;664;48004;-68
2023/09/14 07:11:25;;;;;;;11.55;4.90;;;;;;;27.34;100.00;101489.28;143717;656;46008;-69
2023/09/14 07:13:52;;;;;;;24.77;5.50;;;;;;;27.48;100.00;101492.19;143715;573;47008;-69
2023/09/14 07:16:19;;;;;;;17.33;6.65;;;;;;;27.58;100.00;101492.03;143718;594;47012;-68
2023/09/14 07:18:46;;;;;;;14.32;4.87;;;;;;;27.65;100.00;101497.19;143717;611;48004;-69
2023/09/14 07:21:13;;;;;;;12.45;6.07;;;;;;;27.76;100.00;101501.50;143719;607;46008;-69
2023/09/14 07:23:40;;;;;;;19.87;5.47;;;;;;;27.79;100.00;101492.62;143712;593;49008;-69
2023/09/14 07:26:07;;;;;;;16.98;5.45;;;;;;;27.87;100.00;101496.66;143716;581;48010;-71
2023/09/14 07:28:34;;;;;;;9.98;5.05;;;;;;;28.04;100.00;101500.84;143719;591;47004;-69
2023/09/14 07:31:04;;;;;;;16.58;6.05;;;;;;;28.14;100.00;101503.47;143714;577;46008;-71
2023/09/14 07:33:31;;;;;;;14.55;4.55;;;;;;;28.31;100.00;101502.09;143717;579;47006;-70
2023/09/14 07:35:59;;;;;;;9.95;3.60;;;;;;;28.39;100.00;101504.19;143719;582;47010;-71
2023/09/14 07:38:26;;;;;;;13.70;3.72;;;;;;;28.44;100.00;101504.09;143711;630;49004;-70
2023/09/14 07:40:53;;;;;;;8.20;4.03;;;;;;;28.50;100.00;101508.44;143712;576;48004;-70
2023/09/14 07:43:20;;;;;;;10.43;4.10;;;;;;;28.62;100.00;101507.97;143715;593;47008;-70
2023/09/14 07:45:47;;;;;;;11.68;4.10;;;;;;;28.65;100.00;101506.53;143717;615;47010;-69
2023/09/14 07:48:14;;;;;;;9.77;3.97;;;;;;;28.67;100.00;101507.03;143715;600;47013;-69
2023/09/14 07:50:41;;;;;;;13.48;4.55;;;;;;;28.53;100.00;101505.06;143714;567;46008;-69
2023/09/14 07:53:09;;;;;;;14.10;5.18;;;;;;;28.65;100.00;101501.84;143706;620;49004;-70
2023/09/14 07:55:36;;;;;;;23.27;5.12;;;;;;;28.73;100.00;101503.06;143715;575;47011;-70
2023/09/14 07:58:03;;;;;;;15.35;7.80;;;;;;;28.88;100.00;101502.84;143715;579;47004;-70
2023/09/14 08:00:30;;;;;;;11.27;4.95;;;;;;;29.00;100.00;101507.87;143713;582;47002;-69
2023/09/14 08:02:57;;;;;;;15.73;4.40;;;;;;;29.08;100.00;101509.09;143710;588;48008;-70
2023/09/14 08:05:25;;;;;;;7.80;4.43;;;;;;;29.17;100.00;101512.00;143717;578;47011;-70
2023/09/14 08:07:53;;;;;;;8.60;3.97;;;;;;;29.23;100.00;101512.69;143721;599;47004;-70
2023/09/14 08:10:20;;;;;;;10.57;3.45;;;;;;;29.27;100.00;101502.66;143713;608;46006;-70
2023/09/14 08:12:47;;;;;;;14.35;4.03;;;;;;;29.30;100.00;101510.34;143710;573;48004;-70
2023/09/14 08:15:15;;;;;;;8.05;4.20;;;;;;;29.41;100.00;101508.22;143715;641;47010;-70
2023/09/14 08:17:43;;;;;;;13.65;4.62;;;;;;;29.39;100.00;101504.97;143717;649;47005;-70
2023/09/14 08:20:10;;;;;;;16.02;5.15;;;;;;;29.55;100.00;101502.69;143713;679;47002;-70
2023/09/14 08:22:37;;;;;;;10.88;4.32;;;;;;;29.66;100.00;101512.38;143714;592;47004;-71
2023/09/14 08:25:06;;;;;;;12.68;3.87;;;;;;;29.71;100.00;101508.72;143715;577;48012;-69
2023/09/14 08:27:33;;;;;;;9.02;3.70;;;;;;;29.74;100.00;101513.62;143709;588;49004;-69
2023/09/14 08:30:00;;;;;;;10.93;3.87;;;;;;;29.90;100.00;101516.88;143712;578;46925;-68
2023/09/14 08:32:27;;;;;;;12.80;3.75;;;;;;;29.97;100.00;101511.75;143713;600;48002;-68
2023/09/14 08:35:00;;;;;;;13.18;4.00;;;;;;;30.09;100.00;101517.56;143715;568;47013;-68
2023/09/14 08:37:28;;;;;;;8.18;3.90;;;;;;;30.22;100.00;101502.03;143717;706;48004;-69
2023/09/14 08:39:55;;;;;;;14.40;4.05;;;;;;;30.35;100.00;101507.81;143714;739;47004;-68
2023/09/14 08:42:24;;;;;;;10.10;3.50;;;;;;;30.46;100.00;101498.13;143712;596;47008;-69
2023/09/14 08:44:53;;;;;;;7.72;3.97;;;;;;;30.65;100.00;101499.91;143707;580;48008;-70
2023/09/14 08:47:22;;;;;;;7.72;3.65;;;;;;;30.85;99.92;101498.56;143712;585;48002;-69
2023/09/14 08:49:51;;;;;;;6.15;3.47;;;;;;;30.94;94.62;101490.28;143714;614;46006;-69
2023/09/14 08:52:19;;;;;;;6.07;3.35;;;;;;;30.87;97.77;101481.59;143718;633;47004;-69
2023/09/14 08:54:48;;;;;;;5.60;3.00;;;;;;;30.83;91.51;101478.63;143716;607;47008;-68
2023/09/14 08:57:15;;;;;;;8.85;2.95;;;;;;;31.05;88.86;101483.31;143716;572;47002;-70
2023/09/14 08:59:43;;;;;;;8.13;2.87;;;;;;;31.27;92.01;101476.06;143718;579;46002;-71
2023/09/14 09:02:13;;;;;;;6.80;2.92;;;;;;;31.41;84.24;101475.94;143714;606;48002;-71
2023/09/14 09:04:40;;;;;;;9.13;2.95;;;;;;;31.29;74.68;101471.81;143716;618;47004;-72
2023/09/14 09:07:09;;;;;;;10.48;3.03;;;;;;;31.26;76.01;101468.88;143713;602;48006;-70
2023/09/14 09:09:36;;;;;;;7.53;3.35;;;;;;;31.42;76.07;101460.91;143717;569;46003;-70
2023/09/14 09:12:03;;;;;;;4.05;2.53;;;;;;;31.28;82.26;101466.59;143718;623;48002;-70
2023/09/14 09:14:37;;;;;;;6.90;2.53;;;;;;;31.26;82.18;101460.56;143715;628;49008;-69
2023/09/14 09:17:04;;;;;;;5.60;2.62;;;;;;;31.28;77.77;101461.84;143718;657;48002;-69
2023/09/14 09:19:45;;;;;;;5.72;2.70;;;;;;;31.44;74.87;101466.94;143714;603;46004;-70
2023/09/14 09:22:14;;;;;;;8.60;2.55;;;;;;;31.67;76.43;101461.28;143719;590;47002;-70
2023/09/14 09:24:41;;;;;;;7.72;2.40;;;;;;;31.58;79.49;101461.28;143715;575;48011;-70
2023/09/14 09:27:29;;;;;;;11.05;3.00;;;;;;;31.82;80.52;101460.03;143714;573;49004;-70
2023/09/14 09:29:59;;;;;;;7.72;3.72;;;;;;;32.08;82.09;101453.63;143715;567;46006;-70
2023/09/14 09:32:26;;;;;;;6.90;2.78;;;;;;;32.09;83.61;101452.50;143716;620;47008;-68
2023/09/14 09:34:53;;;;;;;5.00;2.42;;;;;;;32.21;87.12;101449.88;143715;626;47010;-69
2023/09/14 09:37:21;;;;;;;5.95;2.78;;;;;;;32.04;83.12;101448.72;143718;607;47010;-67
2023/09/14 09:39:48;;;;;;;8.80;2.53;;;;;;;31.93;82.80;101444.66;143714;605;46007;-69
2023/09/14 09:42:15;;;;;;;7.07;2.60;;;;;;;32.01;85.16;101441.06;143715;567;48008;-70
2023/09/14 09:44:42;;;;;;;6.12;2.40;;;;;;;32.23;82.15;101442.00;143717;588;47012;-68
2023/09/14 09:47:12;;;;;;;4.65;2.58;;;;;;;32.19;81.15;101441.06;143716;587;48004;-68
2023/09/14 09:49:39;;;;;;;6.22;2.75;;;;;;;32.17;79.82;101441.34;143719;575;46006;-69
2023/09/14 09:52:13;;;;;;;7.07;2.55;;;;;;;32.18;78.03;101439.41;143719;595;47004;-69
2023/09/14 09:54:40;;;;;;;8.02;2.80;;;;;;;32.10;80.80;101445.78;143716;632;47011;-69
2023/09/14 09:57:08;;;;;;;3.80;2.60;;;;;;;32.08;82.41;101437.78;143717;574;47004;-69
2023/09/14 09:59:35;;;;;;;5.55;2.60;;;;;;;32.06;83.19;101440.87;143715;594;46006;-71
2023/09/14 10:02:07;;;;;;;10.70;2.72;;;;;;;32.09;84.95;101452.50;143719;573;48004;-72
2023/09/14 10:04:33;;;;;;;6.75;2.65;;;;;;;32.24;85.38;101446.41;143726;606;48010;-69
2023/09/14 10:07:04;;;;;;;11.48;3.60;;;;;;;32.17;85.76;101440.56;143720;583;48012;-70
2023/09/14 10:09:34;;;;;;;6.20;2.50;;;;;;;32.29;84.26;101432.38;143724;634;46925;-69
2023/09/14 10:12:03;;;;;;;6.65;2.92;;;;;;;32.23;83.93;101430.88;143725;639;47022;-68
2023/09/14 10:14:35;;;;;;;9.05;2.83;;;;;;;32.35;83.11;101424.69;143724;572;47006;-68
2023/09/14 10:17:07;;;;;;;7.53;3.12;;;;;;;32.35;81.56;101427.47;143725;591;48004;-70
2023/09/14 10:19:39;;;;;;;5.65;2.70;;;;;;;32.24;80.71;101428.94;143752;574;45926;-70
2023/09/14 10:22:08;;;;;;;7.15;2.92;;;;;;;32.30;81.65;101427.66;143755;685;46006;-71
2023/09/14 10:24:37;;;;;;;9.15;2.87;;;;;;;32.31;80.42;101429.25;143740;596;47011;-69
2023/09/14 10:27:05;;;;;;;8.25;2.92;;;;;;;32.01;78.55;101424.41;143723;628;47006;-68
2023/09/14 10:29:35;;;;;;;7.37;2.80;;;;;;;32.16;82.85;101423.06;143753;593;45925;-70
2023/09/14 10:32:03;;;;;;;5.40;2.87;;;;;;;32.22;81.08;101418.12;143755;569;47004;-69
2023/09/14 10:34:30;;;;;;;4.57;3.17;;;;;;;32.24;81.45;101410.28;143745;572;47010;-70
2023/09/14 10:36:59;;;;;;;6.12;2.85;;;;;;;32.15;79.41;101415.06;143751;586;46004;-68
2023/09/14 10:39:27;;;;;;;7.32;2.75;;;;;;;32.22;78.04;101412.56;143753;580;45925;-69
2023/09/14 10:41:55;;;;;;;10.38;3.00;;;;;;;32.34;72.47;101411.94;143739;580;46009;-68
2023/09/14 10:44:22;;;;;;;5.10;2.17;;;;;;;32.26;63.28;101413.59;143723;596;47010;-68
2023/09/14 10:46:56;;;;;;;5.40;2.12;;;;;;;32.41;66.58;101405.84;143724;577;48005;-67
2023/09/14 10:49:28;;;;;;;8.02;2.37;;;;;;;32.29;64.14;101406.56;143724;595;46006;-70
2023/09/14 10:51:55;;;;;;;3.73;2.23;;;;;;;32.35;69.63;101403.28;143723;752;49002;-68
2023/09/14 10:54:27;;;;;;;4.22;2.60;;;;;;;32.46;71.82;101394.56;143729;652;48011;-68
2023/09/14 10:57:00;;;;;;;5.53;3.03;;;;;;;32.47;71.37;101391.47;143726;587;47004;-68
2023/09/14 10:59:49;;;;;;;7.07;3.17;;;;;;;32.38;76.81;101398.19;143746;566;46006;-70
2023/09/14 11:02:59;;;;;;;8.88;3.00;;;;;;;32.57;75.65;101381.12;143726;598;49015;-67
2023/09/14 11:05:39;;;;;;;9.82;3.20;;;;;;;32.70;70.72;101380.06;143721;569;49027;-68
2023/09/14 11:08:06;;;;;;;6.22;2.95;;;;;;;32.72;68.87;101380.56;143721;656;48004;-69
2023/09/14 11:10:39;;;;;;;5.10;2.60;;;;;;;32.61;67.15;101374.53;143719;685;46925;-71
2023/09/14 11:13:30;;;;;;;5.30;3.05;;;;;;;32.53;68.95;101366.25;143726;663;47004;-71
2023/09/14 11:16:40;;;;;;;8.00;3.10;;;;;;;32.50;66.31;101360.19;143722;604;47010;-69
2023/09/14 11:19:07;;;;;;;8.38;2.47;;;;;;;32.65;67.01;101363.59;143723;676;48006;-71
2023/09/14 11:21:43;;;;;;;6.50;2.80;;;;;;;32.61;67.82;101357.06;143723;592;46006;-68
2023/09/14 11:24:10;;;;;;;6.40;3.08;;;;;;;32.55;67.49;101359.22;143725;614;47015;-68
2023/09/14 11:26:44;;;;;;;8.77;3.10;;;;;;;32.59;76.33;101356.56;143718;698;48015;-69
2023/09/14 11:29:11;;;;;;;9.48;3.00;;;;;;;32.69;77.11;101353.41;143725;588;48004;-69
2023/09/14 11:31:39;;;;;;;7.72;2.80;;;;;;;32.65;78.74;101352.47;143719;595;47004;-69
2023/09/14 11:34:12;;;;;;;8.23;3.03;;;;;;;32.63;80.55;101349.19;143721;624;49008;-69
2023/09/14 11:36:41;;;;;;;9.07;3.75;;;;;;;32.37;83.60;101352.09;143721;605;48010;-69
2023/09/14 11:39:10;;;;;;;10.63;3.15;;;;;;;32.25;85.40;101338.84;143723;575;48004;-67
2023/09/14 11:41:40;;;;;;;6.07;2.78;;;;;;;32.33;86.00;101336.06;143723;582;46006;-70
2023/09/14 11:44:07;;;;;;;7.12;3.40;;;;;;;32.41;78.58;101331.63;143725;567;47006;-71
2023/09/14 11:46:37;;;;;;;6.87;3.92;;;;;;;32.46;81.46;101337.00;143725;598;47011;-69
2023/09/14 11:49:04;;;;;;;7.72;3.42;;;;;;;32.38;73.14;101343.41;143712;573;50010;-71
2023/09/14 11:51:32;;;;;;;6.65;2.75;;;;;;;32.42;73.90;101335.19;143722;568;46008;-70
2023/09/14 11:54:00;;;;;;;5.25;2.97;;;;;;;32.46;73.10;101328.66;143725;605;48002;-70
2023/09/14 11:56:33;;;;;;;9.02;6.03;;;;;;;32.54;68.47;101331.72;143725;648;47010;-69
2023/09/14 11:59:02;;;;;;;5.78;2.60;;;;;;;32.56;72.54;101338.59;143720;590;47010;-71
2023/09/14 12:01:34;;;;;;;5.07;2.58;;;;;;;32.60;63.14;101327.59;143719;577;46925;-71
2023/09/14 12:04:04;;;;;;;6.40;2.78;;;;;;;32.42;68.07;101330.47;143723;589;49004;-70
2023/09/14 12:06:31;;;;;;;5.40;3.00;;;;;;;32.38;67.71;101321.16;143724;573;47010;-69
2023/09/14 12:08:59;;;;;;;11.60;2.58;;;;;;;32.39;66.31;101320.00;143725;597;47004;-68
2023/09/14 12:11:42;;;;;;;4.78;2.50;;;;;;;32.46;66.94;101320.31;143725;602;47925;-69
2023/09/14 12:14:09;;;;;;;5.40;2.60;;;;;;;32.39;68.98;101314.47;143722;567;48008;-70
2023/09/14 12:16:38;;;;;;;6.93;2.70;;;;;;;32.42;70.39;101319.34;143720;586;48011;-68
2023/09/14 12:19:11;;;;;;;5.72;3.00;;;;;;;32.49;74.16;101308.50;143729;573;48004;-69
2023/09/14 12:21:39;;;;;;;8.00;2.72;;;;;;;32.42;74.19;101316.56;143729;684;46006;-71
2023/09/14 12:24:06;;;;;;;6.03;3.00;;;;;;;32.41;74.92;101312.16;143720;567;48008;-69
2023/09/14 12:26:33;;;;;;;6.32;2.90;;;;;;;32.49;74.40;101316.84;143724;576;47010;-69
2023/09/14 12:29:01;;;;;;;6.87;3.08;;;;;;;32.65;74.74;101310.75;143728;566;49004;-71
2023/09/14 12:31:31;;;;;;;4.22;2.50;;;;;;;32.65;73.28;101313.53;143723;611;46006;-70
2023/09/14 12:33:59;;;;;;;9.07;3.00;;;;;;;32.70;71.31;101312.50;143726;580;48004;-71
2023/09/14 12:36:26;;;;;;;6.85;3.78;;;;;;;32.64;75.57;101315.47;143722;624;47012;-71
2023/09/14 12:38:54;;;;;;;7.10;3.10;;;;;;;32.48;72.94;101319.97;143730;616;48004;-69
2023/09/14 12:41:22;;;;;;;9.93;3.00;;;;;;;32.34;79.89;101311.84;143724;590;47004;-69
2023/09/14 12:43:49;;;;;;;6.18;2.78;;;;;;;32.32;80.94;101316.94;143724;604;47008;-70
2023/09/14 12:46:16;;;;;;;9.02;2.80;;;;;;;32.37;80.65;101313.97;143724;609;47011;-69
2023/09/14 12:48:43;;;;;;;7.07;2.92;;;;;;;32.42;87.71;101313.78;143722;613;50004;-70
2023/09/14 12:51:16;;;;;;;10.55;3.10;;;;;;;32.44;89.83;101300.38;143723;610;46012;-70
2023/09/14 12:53:44;;;;;;;6.55;2.97;;;;;;;32.41;86.69;101300.22;143725;592;47004;-69
2023/09/14 12:56:11;;;;;;;6.05;3.37;;;;;;;32.47;91.69;101296.09;143721;604;47011;-70
2023/09/14 12:58:41;;;;;;;5.50;2.78;;;;;;;32.36;88.86;101292.88;143724;582;47010;-70
2023/09/14 13:01:08;;;;;;;6.62;2.67;;;;;;;32.38;84.02;101292.56;143726;574;46006;-69
2023/09/14 13:03:36;;;;;;;5.55;2.62;;;;;;;32.29;74.86;101293.41;143755;608;46002;-69
2023/09/14 13:06:03;;;;;;;6.10;2.15;;;;;;;32.22;84.38;101284.72;143724;582;47010;-70
2023/09/14 13:08:43;;;;;;;4.85;2.60;;;;;;;32.18;84.26;101281.81;143725;578;47004;-70
2023/09/14 13:11:24;;;;;;;5.97;2.87;;;;;;;32.18;93.12;101283.78;143725;640;46925;-70
2023/09/14 13:13:51;;;;;;;6.40;2.83;;;;;;;32.25;95.69;101278.50;143725;573;47006;-69
2023/09/14 13:16:19;;;;;;;5.37;2.80;;;;;;;32.22;100.00;101287.50;143723;579;47011;-70
2023/09/14 13:18:47;;;;;;;8.48;2.85;;;;;;;32.18;100.00;101286.56;143724;647;47010;-70
2023/09/14 13:21:14;;;;;;;8.10;3.05;;;;;;;32.23;100.00;101280.00;143727;572;46006;-70